KCPU

Calaveras Co-Maury Rasmussen Field Airport

San Andreas, California, USA
METAR KCPU 271050Z AUTO 13003KT 10SM CLR 10/09 A2999 RMK AO2 T01020090
Observed Flight Rules
May-27 @ 10:50 UTC (an hour ago) Visual Flight Rules
Wind Visibility Clouds
130° at 3 knots 10 miles
  • Clear skies
Temperatures Readings
Current 10°C / 50°F
Dewpoint 9°C / 48°F
Humidity 94%
Altimeter 29.99" Hg
Pressure 1016 hPa
Elevation 404
METAR KCPU 271050Z AUTO 13003KT 10SM CLR 10/09 A2999 RMK AO2 T01020090
Observed Flight Rules
May-27 @ 10:50 UTC
(an hour ago)
VFR
Wind Visibility
130° at 3 knots 10 miles
Clouds
  • Clear skies
Temperature Dewpoint
10°C / 50°F 9°C / 48°F
Humidity Altimeter Pressure
94% 29.99" Hg 1016 hPa